sensor_id;sensor_type;location;lat;lon;timestamp;temperature;humidity
27940;DHT22;15275;51.716;14.324;2022-12-07T00:01:29;6.50;85.40
27940;DHT22;15275;51.716;14.324;2022-12-07T00:03:58;6.50;85.40
27940;DHT22;15275;51.716;14.324;2022-12-07T00:06:41;6.50;85.40
27940;DHT22;15275;51.716;14.324;2022-12-07T00:09:15;6.60;85.50
27940;DHT22;15275;51.716;14.324;2022-12-07T00:11:42;6.60;85.50
27940;DHT22;15275;51.716;14.324;2022-12-07T00:14:11;6.60;85.60
27940;DHT22;15275;51.716;14.324;2022-12-07T00:16:38;6.60;85.60
27940;DHT22;15275;51.716;14.324;2022-12-07T00:19:04;6.60;85.60
27940;DHT22;15275;51.716;14.324;2022-12-07T00:21:34;6.60;85.60
27940;DHT22;15275;51.716;14.324;2022-12-07T00:24:01;6.70;85.60
27940;DHT22;15275;51.716;14.324;2022-12-07T00:26:28;6.70;85.60
27940;DHT22;15275;51.716;14.324;2022-12-07T00:28:59;6.70;85.60
27940;DHT22;15275;51.716;14.324;2022-12-07T00:31:31;6.70;85.60
27940;DHT22;15275;51.716;14.324;2022-12-07T00:34:00;6.70;85.60
27940;DHT22;15275;51.716;14.324;2022-12-07T00:36:26;6.80;85.60
27940;DHT22;15275;51.716;14.324;2022-12-07T00:38:52;6.80;85.50
27940;DHT22;15275;51.716;14.324;2022-12-07T00:41:20;6.80;85.50
27940;DHT22;15275;51.716;14.324;2022-12-07T00:43:48;6.80;85.50
27940;DHT22;15275;51.716;14.324;2022-12-07T00:46:15;6.90;85.40
27940;DHT22;15275;51.716;14.324;2022-12-07T00:48:41;6.90;85.40
27940;DHT22;15275;51.716;14.324;2022-12-07T00:51:07;6.90;85.40
27940;DHT22;15275;51.716;14.324;2022-12-07T00:53:38;6.90;85.40
27940;DHT22;15275;51.716;14.324;2022-12-07T00:56:24;6.90;85.40
27940;DHT22;15275;51.716;14.324;2022-12-07T00:58:58;7.00;85.40
27940;DHT22;15275;51.716;14.324;2022-12-07T01:01:26;7.00;85.50
27940;DHT22;15275;51.716;14.324;2022-12-07T01:03:53;7.00;85.60
27940;DHT22;15275;51.716;14.324;2022-12-07T01:06:19;7.00;85.60
27940;DHT22;15275;51.716;14.324;2022-12-07T01:08:46;7.00;85.60
27940;DHT22;15275;51.716;14.324;2022-12-07T01:11:13;7.00;85.60
27940;DHT22;15275;51.716;14.324;2022-12-07T01:13:42;7.00;85.60
27940;DHT22;15275;51.716;14.324;2022-12-07T01:16:10;7.00;85.70
27940;DHT22;15275;51.716;14.324;2022-12-07T01:18:38;7.00;85.70
27940;DHT22;15275;51.716;14.324;2022-12-07T01:21:05;6.90;85.60
27940;DHT22;15275;51.716;14.324;2022-12-07T01:23:33;6.90;85.50
27940;DHT22;15275;51.716;14.324;2022-12-07T01:26:00;6.90;85.50
27940;DHT22;15275;51.716;14.324;2022-12-07T01:28:28;6.90;85.50
27940;DHT22;15275;51.716;14.324;2022-12-07T01:30:55;6.90;85.40
27940;DHT22;15275;51.716;14.324;2022-12-07T01:33:21;6.90;85.30
27940;DHT22;15275;51.716;14.324;2022-12-07T01:35:47;6.80;85.50
27940;DHT22;15275;51.716;14.324;2022-12-07T01:38:13;6.80;85.50
27940;DHT22;15275;51.716;14.324;2022-12-07T01:40:38;6.80;85.40
27940;DHT22;15275;51.716;14.324;2022-12-07T01:43:09;6.80;85.40
27940;DHT22;15275;51.716;14.324;2022-12-07T01:45:41;6.70;85.30
27940;DHT22;15275;51.716;14.324;2022-12-07T01:48:08;6.70;85.30
27940;DHT22;15275;51.716;14.324;2022-12-07T01:50:35;6.70;85.20
27940;DHT22;15275;51.716;14.324;2022-12-07T01:53:01;6.70;85.00
27940;DHT22;15275;51.716;14.324;2022-12-07T01:55:29;6.70;85.20
27940;DHT22;15275;51.716;14.324;2022-12-07T01:57:55;6.70;85.20
27940;DHT22;15275;51.716;14.324;2022-12-07T02:00:21;6.70;85.20
27940;DHT22;15275;51.716;14.324;2022-12-07T02:05:35;6.70;85.20
27940;DHT22;15275;51.716;14.324;2022-12-07T02:08:02;6.70;85.20
27940;DHT22;15275;51.716;14.324;2022-12-07T02:10:29;6.70;85.20
27940;DHT22;15275;51.716;14.324;2022-12-07T02:12:57;6.70;85.20
27940;DHT22;15275;51.716;14.324;2022-12-07T02:15:26;6.70;85.20
27940;DHT22;15275;51.716;14.324;2022-12-07T02:18:09;6.70;84.90
27940;DHT22;15275;51.716;14.324;2022-12-07T02:26:02;6.70;84.90
27940;DHT22;15275;51.716;14.324;2022-12-07T02:31:36;6.60;84.70
27940;DHT22;15275;51.716;14.324;2022-12-07T02:34:11;6.60;84.80
27940;DHT22;15275;51.716;14.324;2022-12-07T02:36:43;6.50;84.90
27940;DHT22;15275;51.716;14.324;2022-12-07T02:39:17;6.50;84.60
27940;DHT22;15275;51.716;14.324;2022-12-07T02:41:51;6.40;84.50
27940;DHT22;15275;51.716;14.324;2022-12-07T02:44:20;6.30;84.50
27940;DHT22;15275;51.716;14.324;2022-12-07T02:46:52;6.20;84.30
27940;DHT22;15275;51.716;14.324;2022-12-07T02:49:21;6.10;83.70
27940;DHT22;15275;51.716;14.324;2022-12-07T02:51:48;6.00;83.70
27940;DHT22;15275;51.716;14.324;2022-12-07T02:54:15;5.90;83.30
27940;DHT22;15275;51.716;14.324;2022-12-07T03:07:23;5.50;83.30
27940;DHT22;15275;51.716;14.324;2022-12-07T03:10:13;5.50;83.20
27940;DHT22;15275;51.716;14.324;2022-12-07T03:12:48;5.40;83.30
27940;DHT22;15275;51.716;14.324;2022-12-07T03:18:13;5.30;83.30
27940;DHT22;15275;51.716;14.324;2022-12-07T03:20:42;5.30;83.30
27940;DHT22;15275;51.716;14.324;2022-12-07T03:23:09;5.20;83.30
27940;DHT22;15275;51.716;14.324;2022-12-07T03:25:38;5.20;83.30
27940;DHT22;15275;51.716;14.324;2022-12-07T03:28:05;5.20;83.40
27940;DHT22;15275;51.716;14.324;2022-12-07T03:33:25;5.10;83.40
27940;DHT22;15275;51.716;14.324;2022-12-07T03:36:02;5.00;83.50
27940;DHT22;15275;51.716;14.324;2022-12-07T03:41:14;5.00;83.50
27940;DHT22;15275;51.716;14.324;2022-12-07T03:43:48;5.00;83.60
27940;DHT22;15275;51.716;14.324;2022-12-07T03:49:37;4.90;83.60
27940;DHT22;15275;51.716;14.324;2022-12-07T03:52:14;4.90;83.60
27940;DHT22;15275;51.716;14.324;2022-12-07T03:57:29;4.90;83.80
27940;DHT22;15275;51.716;14.324;2022-12-07T03:59:56;4.90;83.80
27940;DHT22;15275;51.716;14.324;2022-12-07T04:02:23;4.90;84.00
27940;DHT22;15275;51.716;14.324;2022-12-07T04:04:50;4.90;84.10
27940;DHT22;15275;51.716;14.324;2022-12-07T04:07:16;5.00;84.10
27940;DHT22;15275;51.716;14.324;2022-12-07T04:09:42;5.00;84.30
27940;DHT22;15275;51.716;14.324;2022-12-07T04:12:08;5.00;84.30
27940;DHT22;15275;51.716;14.324;2022-12-07T04:14:33;5.10;84.40
27940;DHT22;15275;51.716;14.324;2022-12-07T04:16:59;5.10;84.40
27940;DHT22;15275;51.716;14.324;2022-12-07T04:19:26;5.20;84.40
27940;DHT22;15275;51.716;14.324;2022-12-07T04:21:54;5.20;84.40
27940;DHT22;15275;51.716;14.324;2022-12-07T04:24:20;5.20;84.40
27940;DHT22;15275;51.716;14.324;2022-12-07T04:26:46;5.20;84.40
27940;DHT22;15275;51.716;14.324;2022-12-07T04:29:12;5.20;84.30
27940;DHT22;15275;51.716;14.324;2022-12-07T04:31:39;5.30;84.10
27940;DHT22;15275;51.716;14.324;2022-12-07T04:34:05;5.20;84.10
27940;DHT22;15275;51.716;14.324;2022-12-07T04:36:31;5.20;83.90
27940;DHT22;15275;51.716;14.324;2022-12-07T04:38:57;5.20;83.80
27940;DHT22;15275;51.716;14.324;2022-12-07T04:41:23;5.20;83.70
27940;DHT22;15275;51.716;14.324;2022-12-07T04:46:19;5.20;83.70
27940;DHT22;15275;51.716;14.324;2022-12-07T04:48:44;5.10;83.50
27940;DHT22;15275;51.716;14.324;2022-12-07T04:51:10;5.10;83.60
27940;DHT22;15275;51.716;14.324;2022-12-07T04:53:36;5.10;83.80
27940;DHT22;15275;51.716;14.324;2022-12-07T04:56:01;5.10;83.80
27940;DHT22;15275;51.716;14.324;2022-12-07T04:58:27;5.10;83.90
27940;DHT22;15275;51.716;14.324;2022-12-07T05:00:54;5.10;83.70
27940;DHT22;15275;51.716;14.324;2022-12-07T05:03:20;5.10;83.70
27940;DHT22;15275;51.716;14.324;2022-12-07T05:05:46;5.10;83.70
27940;DHT22;15275;51.716;14.324;2022-12-07T05:08:11;5.10;83.70
27940;DHT22;15275;51.716;14.324;2022-12-07T05:10:37;5.10;83.70
27940;DHT22;15275;51.716;14.324;2022-12-07T05:13:03;5.10;83.70
27940;DHT22;15275;51.716;14.324;2022-12-07T05:15:29;5.00;83.70
27940;DHT22;15275;51.716;14.324;2022-12-07T05:17:54;5.00;83.80
27940;DHT22;15275;51.716;14.324;2022-12-07T05:20:20;5.00;83.90
27940;DHT22;15275;51.716;14.324;2022-12-07T05:22:46;5.00;84.00
27940;DHT22;15275;51.716;14.324;2022-12-07T05:25:12;5.00;84.00
27940;DHT22;15275;51.716;14.324;2022-12-07T05:27:38;5.10;84.10
27940;DHT22;15275;51.716;14.324;2022-12-07T05:30:04;5.10;84.10
27940;DHT22;15275;51.716;14.324;2022-12-07T05:32:30;5.10;84.20
27940;DHT22;15275;51.716;14.324;2022-12-07T05:34:56;5.10;84.30
27940;DHT22;15275;51.716;14.324;2022-12-07T05:37:22;5.20;84.40
27940;DHT22;15275;51.716;14.324;2022-12-07T05:39:47;5.20;84.50
27940;DHT22;15275;51.716;14.324;2022-12-07T05:42:13;5.30;84.50
27940;DHT22;15275;51.716;14.324;2022-12-07T05:44:39;5.30;84.60
27940;DHT22;15275;51.716;14.324;2022-12-07T05:47:06;5.30;84.60
27940;DHT22;15275;51.716;14.324;2022-12-07T05:49:32;5.30;84.60
27940;DHT22;15275;51.716;14.324;2022-12-07T05:51:58;5.40;84.60
27940;DHT22;15275;51.716;14.324;2022-12-07T05:54:24;5.40;84.50
27940;DHT22;15275;51.716;14.324;2022-12-07T05:56:50;5.40;84.50
27940;DHT22;15275;51.716;14.324;2022-12-07T05:59:16;5.40;84.50
27940;DHT22;15275;51.716;14.324;2022-12-07T06:01:49;5.50;84.50
27940;DHT22;15275;51.716;14.324;2022-12-07T06:04:16;5.40;84.50
27940;DHT22;15275;51.716;14.324;2022-12-07T06:06:42;5.50;84.50
27940;DHT22;15275;51.716;14.324;2022-12-07T06:09:07;5.50;84.50
27940;DHT22;15275;51.716;14.324;2022-12-07T06:11:33;5.50;84.50
27940;DHT22;15275;51.716;14.324;2022-12-07T06:14:17;5.50;84.60
27940;DHT22;15275;51.716;14.324;2022-12-07T06:16:43;5.50;84.60
27940;DHT22;15275;51.716;14.324;2022-12-07T06:19:09;5.60;84.50
27940;DHT22;15275;51.716;14.324;2022-12-07T06:21:35;5.60;84.50
27940;DHT22;15275;51.716;14.324;2022-12-07T06:24:00;5.60;84.70
27940;DHT22;15275;51.716;14.324;2022-12-07T06:26:27;5.70;84.60
27940;DHT22;15275;51.716;14.324;2022-12-07T06:28:52;5.70;84.20
27940;DHT22;15275;51.716;14.324;2022-12-07T06:31:18;5.70;84.30
27940;DHT22;15275;51.716;14.324;2022-12-07T06:33:44;5.70;84.30
27940;DHT22;15275;51.716;14.324;2022-12-07T06:36:10;5.70;84.40
27940;DHT22;15275;51.716;14.324;2022-12-07T06:38:36;5.80;84.30
27940;DHT22;15275;51.716;14.324;2022-12-07T06:41:01;5.80;84.40
27940;DHT22;15275;51.716;14.324;2022-12-07T06:43:27;5.80;84.20
27940;DHT22;15275;51.716;14.324;2022-12-07T06:45:53;5.80;84.10
27940;DHT22;15275;51.716;14.324;2022-12-07T06:48:19;5.80;84.00
27940;DHT22;15275;51.716;14.324;2022-12-07T06:50:45;5.80;84.00
27940;DHT22;15275;51.716;14.324;2022-12-07T06:53:11;5.70;83.70
27940;DHT22;15275;51.716;14.324;2022-12-07T06:55:37;5.70;83.70
27940;DHT22;15275;51.716;14.324;2022-12-07T06:58:02;5.70;83.70
27940;DHT22;15275;51.716;14.324;2022-12-07T07:00:28;5.60;83.40
27940;DHT22;15275;51.716;14.324;2022-12-07T07:02:54;5.60;83.60
27940;DHT22;15275;51.716;14.324;2022-12-07T07:05:20;5.60;83.70
27940;DHT22;15275;51.716;14.324;2022-12-07T07:07:49;5.50;83.80
27940;DHT22;15275;51.716;14.324;2022-12-07T07:10:15;5.50;83.80
27940;DHT22;15275;51.716;14.324;2022-12-07T07:12:41;5.50;83.90
27940;DHT22;15275;51.716;14.324;2022-12-07T07:15:07;5.50;83.90
27940;DHT22;15275;51.716;14.324;2022-12-07T07:17:33;5.50;84.00
27940;DHT22;15275;51.716;14.324;2022-12-07T07:19:59;5.50;84.20
27940;DHT22;15275;51.716;14.324;2022-12-07T07:22:24;5.50;84.20
27940;DHT22;15275;51.716;14.324;2022-12-07T07:24:50;5.50;84.40
27940;DHT22;15275;51.716;14.324;2022-12-07T07:27:16;5.50;84.40
27940;DHT22;15275;51.716;14.324;2022-12-07T07:29:41;5.50;84.60
27940;DHT22;15275;51.716;14.324;2022-12-07T07:32:07;5.60;84.70
27940;DHT22;15275;51.716;14.324;2022-12-07T07:34:33;5.60;84.70
27940;DHT22;15275;51.716;14.324;2022-12-07T07:36:59;5.60;84.70
27940;DHT22;15275;51.716;14.324;2022-12-07T07:39:25;5.60;84.80
27940;DHT22;15275;51.716;14.324;2022-12-07T07:41:51;5.70;84.80
27940;DHT22;15275;51.716;14.324;2022-12-07T07:44:16;5.70;84.90
27940;DHT22;15275;51.716;14.324;2022-12-07T07:46:42;5.70;84.80
27940;DHT22;15275;51.716;14.324;2022-12-07T07:49:08;5.80;84.80
27940;DHT22;15275;51.716;14.324;2022-12-07T07:51:36;5.80;84.70
27940;DHT22;15275;51.716;14.324;2022-12-07T07:54:02;5.80;84.80
27940;DHT22;15275;51.716;14.324;2022-12-07T07:56:29;5.80;84.80
27940;DHT22;15275;51.716;14.324;2022-12-07T07:58:54;5.90;84.90
27940;DHT22;15275;51.716;14.324;2022-12-07T08:01:20;5.90;85.10
27940;DHT22;15275;51.716;14.324;2022-12-07T08:03:46;5.90;85.00
27940;DHT22;15275;51.716;14.324;2022-12-07T08:06:13;6.00;85.00
27940;DHT22;15275;51.716;14.324;2022-12-07T08:08:39;6.00;84.80
27940;DHT22;15275;51.716;14.324;2022-12-07T08:11:09;6.00;84.70
27940;DHT22;15275;51.716;14.324;2022-12-07T08:13:35;6.00;84.80
27940;DHT22;15275;51.716;14.324;2022-12-07T08:16:05;6.10;84.80
27940;DHT22;15275;51.716;14.324;2022-12-07T08:18:34;6.10;84.90
27940;DHT22;15275;51.716;14.324;2022-12-07T08:21:02;6.10;85.00
27940;DHT22;15275;51.716;14.324;2022-12-07T08:23:29;6.10;84.90
27940;DHT22;15275;51.716;14.324;2022-12-07T08:25:55;6.20;84.90
27940;DHT22;15275;51.716;14.324;2022-12-07T08:28:25;6.20;85.00
27940;DHT22;15275;51.716;14.324;2022-12-07T08:30:50;6.30;85.10
27940;DHT22;15275;51.716;14.324;2022-12-07T08:33:17;6.30;85.00
27940;DHT22;15275;51.716;14.324;2022-12-07T08:35:42;6.30;85.10
27940;DHT22;15275;51.716;14.324;2022-12-07T08:38:08;6.40;85.10
27940;DHT22;15275;51.716;14.324;2022-12-07T08:40:34;6.40;85.10
27940;DHT22;15275;51.716;14.324;2022-12-07T08:43:00;6.40;85.10
27940;DHT22;15275;51.716;14.324;2022-12-07T08:45:26;6.50;84.90
27940;DHT22;15275;51.716;14.324;2022-12-07T08:47:57;6.50;85.00
27940;DHT22;15275;51.716;14.324;2022-12-07T08:50:26;6.50;85.00
27940;DHT22;15275;51.716;14.324;2022-12-07T08:52:53;6.50;84.80
27940;DHT22;15275;51.716;14.324;2022-12-07T08:55:20;6.60;85.30
27940;DHT22;15275;51.716;14.324;2022-12-07T08:57:46;6.60;85.30
27940;DHT22;15275;51.716;14.324;2022-12-07T09:00:12;6.70;85.30
27940;DHT22;15275;51.716;14.324;2022-12-07T09:02:38;6.70;85.30
27940;DHT22;15275;51.716;14.324;2022-12-07T09:05:04;6.70;85.30
27940;DHT22;15275;51.716;14.324;2022-12-07T09:07:31;6.80;85.20
27940;DHT22;15275;51.716;14.324;2022-12-07T09:09:58;6.80;85.00
27940;DHT22;15275;51.716;14.324;2022-12-07T09:12:24;6.80;85.40
27940;DHT22;15275;51.716;14.324;2022-12-07T09:14:50;6.80;85.20
27940;DHT22;15275;51.716;14.324;2022-12-07T09:17:15;6.80;84.60
27940;DHT22;15275;51.716;14.324;2022-12-07T09:19:41;6.80;84.60
27940;DHT22;15275;51.716;14.324;2022-12-07T09:22:07;6.80;84.70
27940;DHT22;15275;51.716;14.324;2022-12-07T09:24:33;6.90;84.50
27940;DHT22;15275;51.716;14.324;2022-12-07T09:26:59;6.90;84.60
27940;DHT22;15275;51.716;14.324;2022-12-07T09:29:25;6.90;84.80
27940;DHT22;15275;51.716;14.324;2022-12-07T09:31:51;7.00;84.80
27940;DHT22;15275;51.716;14.324;2022-12-07T09:34:17;7.00;85.20
27940;DHT22;15275;51.716;14.324;2022-12-07T09:36:43;7.00;85.20
27940;DHT22;15275;51.716;14.324;2022-12-07T09:39:09;7.10;85.10
27940;DHT22;15275;51.716;14.324;2022-12-07T09:41:39;7.10;85.10
27940;DHT22;15275;51.716;14.324;2022-12-07T09:44:10;7.10;84.90
27940;DHT22;15275;51.716;14.324;2022-12-07T09:46:39;7.20;84.70
27940;DHT22;15275;51.716;14.324;2022-12-07T09:49:09;7.20;85.10
27940;DHT22;15275;51.716;14.324;2022-12-07T09:51:37;7.20;84.60
27940;DHT22;15275;51.716;14.324;2022-12-07T09:54:03;7.20;84.80
27940;DHT22;15275;51.716;14.324;2022-12-07T09:56:29;7.30;84.90
27940;DHT22;15275;51.716;14.324;2022-12-07T09:59:00;7.30;85.10
27940;DHT22;15275;51.716;14.324;2022-12-07T10:01:28;7.30;85.10
27940;DHT22;15275;51.716;14.324;2022-12-07T10:04:08;7.30;85.00
27940;DHT22;15275;51.716;14.324;2022-12-07T10:06:38;7.40;85.20
27940;DHT22;15275;51.716;14.324;2022-12-07T10:09:37;7.40;85.20
27940;DHT22;15275;51.716;14.324;2022-12-07T10:12:07;7.50;85.30
27940;DHT22;15275;51.716;14.324;2022-12-07T10:14:36;7.50;85.60
27940;DHT22;15275;51.716;14.324;2022-12-07T10:17:25;7.60;85.60
27940;DHT22;15275;51.716;14.324;2022-12-07T10:20:10;7.60;85.50
27940;DHT22;15275;51.716;14.324;2022-12-07T10:22:52;7.60;85.20
27940;DHT22;15275;51.716;14.324;2022-12-07T10:25:33;7.60;85.10
27940;DHT22;15275;51.716;14.324;2022-12-07T10:30:32;7.70;84.80
27940;DHT22;15275;51.716;14.324;2022-12-07T10:32:58;7.70;84.80
27940;DHT22;15275;51.716;14.324;2022-12-07T10:35:25;7.70;85.00
27940;DHT22;15275;51.716;14.324;2022-12-07T10:37:56;7.70;84.70
27940;DHT22;15275;51.716;14.324;2022-12-07T10:43:15;7.80;85.40
27940;DHT22;15275;51.716;14.324;2022-12-07T10:54:01;8.00;85.40
27940;DHT22;15275;51.716;14.324;2022-12-07T10:56:54;8.00;85.30
27940;DHT22;15275;51.716;14.324;2022-12-07T11:05:45;8.00;84.60
27940;DHT22;15275;51.716;14.324;2022-12-07T11:10:54;8.00;85.40
27940;DHT22;15275;51.716;14.324;2022-12-07T11:13:28;8.00;85.70
27940;DHT22;15275;51.716;14.324;2022-12-07T11:24:24;7.90;84.50
27940;DHT22;15275;51.716;14.324;2022-12-07T11:27:07;7.90;84.70
27940;DHT22;15275;51.716;14.324;2022-12-07T11:37:45;8.00;84.80
27940;DHT22;15275;51.716;14.324;2022-12-07T11:40:14;8.00;84.70
27940;DHT22;15275;51.716;14.324;2022-12-07T11:45:32;8.00;84.70
27940;DHT22;15275;51.716;14.324;2022-12-07T11:48:16;8.00;85.30
27940;DHT22;15275;51.716;14.324;2022-12-07T11:50:50;8.00;84.70
27940;DHT22;15275;51.716;14.324;2022-12-07T11:58:42;8.00;85.80
27940;DHT22;15275;51.716;14.324;2022-12-07T12:06:35;8.00;85.50
27940;DHT22;15275;51.716;14.324;2022-12-07T12:14:58;8.10;85.40
27940;DHT22;15275;51.716;14.324;2022-12-07T12:25:40;8.10;85.50
27940;DHT22;15275;51.716;14.324;2022-12-07T12:28:17;8.10;85.50
27940;DHT22;15275;51.716;14.324;2022-12-07T12:30:46;8.10;85.30
27940;DHT22;15275;51.716;14.324;2022-12-07T12:33:38;8.10;85.20
27940;DHT22;15275;51.716;14.324;2022-12-07T12:44:38;8.20;84.90
27940;DHT22;15275;51.716;14.324;2022-12-07T12:46:57;8.20;84.70
27940;DHT22;15275;51.716;14.324;2022-12-07T12:51:58;8.30;84.90
27940;DHT22;15275;51.716;14.324;2022-12-07T12:54:37;8.30;84.50
27940;DHT22;15275;51.716;14.324;2022-12-07T13:05:02;8.30;84.40
27940;DHT22;15275;51.716;14.324;2022-12-07T13:28:32;8.20;84.50
27940;DHT22;15275;51.716;14.324;2022-12-07T13:31:12;8.20;84.30
27940;DHT22;15275;51.716;14.324;2022-12-07T13:33:42;8.20;83.70
27940;DHT22;15275;51.716;14.324;2022-12-07T13:36:14;8.20;83.50
27940;DHT22;15275;51.716;14.324;2022-12-07T13:39:18;8.20;83.40
27940;DHT22;15275;51.716;14.324;2022-12-07T13:41:42;8.30;83.40
27940;DHT22;15275;51.716;14.324;2022-12-07T13:44:09;8.30;83.70
27940;DHT22;15275;51.716;14.324;2022-12-07T13:51:50;8.30;83.90
27940;DHT22;15275;51.716;14.324;2022-12-07T13:54:17;8.30;83.90
27940;DHT22;15275;51.716;14.324;2022-12-07T13:56:43;8.30;83.50
27940;DHT22;15275;51.716;14.324;2022-12-07T13:59:16;8.30;83.70
27940;DHT22;15275;51.716;14.324;2022-12-07T14:01:52;8.30;83.60
27940;DHT22;15275;51.716;14.324;2022-12-07T14:04:37;8.30;83.80
27940;DHT22;15275;51.716;14.324;2022-12-07T14:07:20;8.20;83.80
27940;DHT22;15275;51.716;14.324;2022-12-07T14:09:58;8.20;84.20
27940;DHT22;15275;51.716;14.324;2022-12-07T14:12:26;8.20;84.10
27940;DHT22;15275;51.716;14.324;2022-12-07T14:14:53;8.20;83.80
27940;DHT22;15275;51.716;14.324;2022-12-07T14:17:20;8.20;83.90
27940;DHT22;15275;51.716;14.324;2022-12-07T14:19:52;8.10;83.60
27940;DHT22;15275;51.716;14.324;2022-12-07T14:25:09;8.10;83.90
27940;DHT22;15275;51.716;14.324;2022-12-07T14:30:15;8.00;83.90
27940;DHT22;15275;51.716;14.324;2022-12-07T14:32:41;8.00;83.60
27940;DHT22;15275;51.716;14.324;2022-12-07T14:35:11;8.00;83.50
27940;DHT22;15275;51.716;14.324;2022-12-07T14:37:39;8.00;83.70
27940;DHT22;15275;51.716;14.324;2022-12-07T14:40:06;7.90;83.50
27940;DHT22;15275;51.716;14.324;2022-12-07T14:42:32;7.90;83.20
27940;DHT22;15275;51.716;14.324;2022-12-07T14:45:00;7.90;83.60
27940;DHT22;15275;51.716;14.324;2022-12-07T14:47:26;7.90;83.40
27940;DHT22;15275;51.716;14.324;2022-12-07T14:49:52;7.80;83.20
27940;DHT22;15275;51.716;14.324;2022-12-07T14:52:23;7.80;83.40
27940;DHT22;15275;51.716;14.324;2022-12-07T14:54:52;7.80;83.20
27940;DHT22;15275;51.716;14.324;2022-12-07T14:57:18;7.80;83.10
27940;DHT22;15275;51.716;14.324;2022-12-07T14:59:44;7.70;82.90
27940;DHT22;15275;51.716;14.324;2022-12-07T15:02:13;7.70;83.00
27940;DHT22;15275;51.716;14.324;2022-12-07T15:04:39;7.70;82.80
27940;DHT22;15275;51.716;14.324;2022-12-07T15:07:06;7.70;82.80
27940;DHT22;15275;51.716;14.324;2022-12-07T15:09:36;7.70;82.70
27940;DHT22;15275;51.716;14.324;2022-12-07T15:12:01;7.60;82.70
27940;DHT22;15275;51.716;14.324;2022-12-07T15:14:28;7.60;82.80
27940;DHT22;15275;51.716;14.324;2022-12-07T15:16:54;7.60;82.70
27940;DHT22;15275;51.716;14.324;2022-12-07T15:19:21;7.60;82.80
27940;DHT22;15275;51.716;14.324;2022-12-07T15:21:50;7.50;82.90
27940;DHT22;15275;51.716;14.324;2022-12-07T15:24:16;7.50;83.00
27940;DHT22;15275;51.716;14.324;2022-12-07T15:26:42;7.50;83.00
27940;DHT22;15275;51.716;14.324;2022-12-07T15:29:08;7.50;82.90
27940;DHT22;15275;51.716;14.324;2022-12-07T15:31:34;7.50;83.10
27940;DHT22;15275;51.716;14.324;2022-12-07T15:34:00;7.50;82.70
27940;DHT22;15275;51.716;14.324;2022-12-07T15:36:27;7.50;82.80
27940;DHT22;15275;51.716;14.324;2022-12-07T15:38:55;7.40;82.80
27940;DHT22;15275;51.716;14.324;2022-12-07T15:41:21;7.40;82.90
27940;DHT22;15275;51.716;14.324;2022-12-07T15:43:47;7.40;82.80
27940;DHT22;15275;51.716;14.324;2022-12-07T15:46:32;7.40;82.80
27940;DHT22;15275;51.716;14.324;2022-12-07T15:48:59;7.40;82.80
27940;DHT22;15275;51.716;14.324;2022-12-07T15:51:25;7.30;82.70
27940;DHT22;15275;51.716;14.324;2022-12-07T15:53:51;7.30;82.60
27940;DHT22;15275;51.716;14.324;2022-12-07T15:56:18;7.30;82.80
27940;DHT22;15275;51.716;14.324;2022-12-07T15:58:43;7.30;82.60
27940;DHT22;15275;51.716;14.324;2022-12-07T16:01:10;7.20;82.80
27940;DHT22;15275;51.716;14.324;2022-12-07T16:03:45;7.20;83.00
27940;DHT22;15275;51.716;14.324;2022-12-07T16:06:11;7.20;83.00
27940;DHT22;15275;51.716;14.324;2022-12-07T16:08:41;7.20;83.00
27940;DHT22;15275;51.716;14.324;2022-12-07T16:11:08;7.10;82.80
27940;DHT22;15275;51.716;14.324;2022-12-07T16:13:34;7.10;83.00
27940;DHT22;15275;51.716;14.324;2022-12-07T16:16:06;7.10;83.00
27940;DHT22;15275;51.716;14.324;2022-12-07T16:18:34;7.10;83.00
27940;DHT22;15275;51.716;14.324;2022-12-07T16:21:01;7.00;82.90
27940;DHT22;15275;51.716;14.324;2022-12-07T16:23:27;7.00;83.10
27940;DHT22;15275;51.716;14.324;2022-12-07T16:25:53;7.00;83.10
27940;DHT22;15275;51.716;14.324;2022-12-07T16:28:18;6.90;82.90
27940;DHT22;15275;51.716;14.324;2022-12-07T16:30:44;6.90;82.90
27940;DHT22;15275;51.716;14.324;2022-12-07T16:33:10;6.90;82.80
27940;DHT22;15275;51.716;14.324;2022-12-07T16:35:39;6.80;82.70
27940;DHT22;15275;51.716;14.324;2022-12-07T16:38:09;6.80;82.90
27940;DHT22;15275;51.716;14.324;2022-12-07T16:40:34;6.80;83.00
27940;DHT22;15275;51.716;14.324;2022-12-07T16:43:00;6.80;83.30
27940;DHT22;15275;51.716;14.324;2022-12-07T16:45:26;6.70;83.00
27940;DHT22;15275;51.716;14.324;2022-12-07T16:47:52;6.70;83.10
27940;DHT22;15275;51.716;14.324;2022-12-07T16:50:17;6.70;83.20
27940;DHT22;15275;51.716;14.324;2022-12-07T16:52:43;6.60;83.20
27940;DHT22;15275;51.716;14.324;2022-12-07T16:55:09;6.60;83.20
27940;DHT22;15275;51.716;14.324;2022-12-07T16:57:35;6.60;83.10
27940;DHT22;15275;51.716;14.324;2022-12-07T17:00:01;6.60;83.20
27940;DHT22;15275;51.716;14.324;2022-12-07T17:02:28;6.60;83.20
27940;DHT22;15275;51.716;14.324;2022-12-07T17:04:54;6.50;83.10
27940;DHT22;15275;51.716;14.324;2022-12-07T17:07:20;6.50;83.20
27940;DHT22;15275;51.716;14.324;2022-12-07T17:09:46;6.50;83.50
27940;DHT22;15275;51.716;14.324;2022-12-07T17:12:11;6.50;83.50
27940;DHT22;15275;51.716;14.324;2022-12-07T17:14:37;6.50;83.40
27940;DHT22;15275;51.716;14.324;2022-12-07T17:17:21;6.50;83.40
27940;DHT22;15275;51.716;14.324;2022-12-07T17:19:47;6.50;83.60
27940;DHT22;15275;51.716;14.324;2022-12-07T17:22:13;6.50;83.30
27940;DHT22;15275;51.716;14.324;2022-12-07T17:24:39;6.50;83.50
27940;DHT22;15275;51.716;14.324;2022-12-07T17:27:04;6.50;83.40
27940;DHT22;15275;51.716;14.324;2022-12-07T17:29:30;6.50;83.30
27940;DHT22;15275;51.716;14.324;2022-12-07T17:31:56;6.40;83.40
27940;DHT22;15275;51.716;14.324;2022-12-07T17:34:22;6.50;83.40
27940;DHT22;15275;51.716;14.324;2022-12-07T17:36:47;6.50;83.50
27940;DHT22;15275;51.716;14.324;2022-12-07T17:39:17;6.50;83.50
27940;DHT22;15275;51.716;14.324;2022-12-07T17:41:43;6.50;83.50
27940;DHT22;15275;51.716;14.324;2022-12-07T17:44:28;6.50;83.50
27940;DHT22;15275;51.716;14.324;2022-12-07T17:46:54;6.50;83.40
27940;DHT22;15275;51.716;14.324;2022-12-07T17:49:22;6.50;83.60
27940;DHT22;15275;51.716;14.324;2022-12-07T17:51:48;6.50;83.90
27940;DHT22;15275;51.716;14.324;2022-12-07T17:54:32;6.50;83.90
27940;DHT22;15275;51.716;14.324;2022-12-07T17:56:58;6.50;83.70
27940;DHT22;15275;51.716;14.324;2022-12-07T17:59:24;6.50;84.30
27940;DHT22;15275;51.716;14.324;2022-12-07T18:01:50;6.50;84.20
27940;DHT22;15275;51.716;14.324;2022-12-07T18:04:15;6.50;83.90
27940;DHT22;15275;51.716;14.324;2022-12-07T18:06:41;6.50;84.00
27940;DHT22;15275;51.716;14.324;2022-12-07T18:09:07;6.50;83.90
27940;DHT22;15275;51.716;14.324;2022-12-07T18:11:34;6.50;83.60
27940;DHT22;15275;51.716;14.324;2022-12-07T18:14:00;6.40;84.00